createdAt,value
2023-05-22T00:00:14.655Z,17.9
2023-05-22T00:06:07.314Z,17.9
2023-05-22T00:11:42.942Z,17.9
2023-05-22T00:17:34.377Z,17.9
2023-05-22T00:23:26.701Z,17.9
2023-05-22T00:29:17.972Z,17.9
2023-05-22T00:35:09.172Z,17.9
2023-05-22T00:41:01.368Z,17.9
2023-05-22T00:46:53.159Z,17.9
2023-05-22T00:52:43.915Z,17.9
2023-05-22T00:58:35.264Z,17.9
2023-05-22T01:04:28.730Z,17.9
2023-05-22T01:10:20.009Z,17.9
2023-05-22T01:16:11.690Z,17.9
2023-05-22T01:22:04.269Z,17.9
2023-05-22T01:27:55.510Z,17.9
2023-05-22T01:33:47.576Z,17.9
2023-05-22T01:39:38.743Z,17.9
2023-05-22T01:45:30.677Z,17.9
2023-05-22T01:51:22.567Z,17.9
2023-05-22T01:57:13.242Z,17.9
2023-05-22T02:03:06.552Z,17.9
2023-05-22T02:08:58.897Z,17.9
2023-05-22T02:14:50.457Z,17.9
2023-05-22T02:20:27.102Z,17.8
2023-05-22T02:26:18.897Z,17.8
2023-05-22T02:32:10.771Z,17.8
2023-05-22T02:38:02.345Z,17.8
2023-05-22T02:43:54.462Z,17.8
2023-05-22T02:49:46.514Z,17.8
2023-05-22T02:55:37.246Z,17.8
2023-05-22T03:01:29.580Z,17.8
2023-05-22T03:07:21.421Z,17.8
2023-05-22T03:13:12.977Z,17.8
2023-05-22T03:19:05.292Z,17.8
2023-05-22T03:24:56.596Z,17.8
2023-05-22T03:30:48.025Z,17.8
2023-05-22T03:36:40.699Z,17.8
2023-05-22T03:42:16.545Z,17.8
2023-05-22T03:47:54.342Z,17.8
2023-05-22T03:53:48.893Z,17.8
2023-05-22T03:59:39.610Z,17.8
2023-05-22T04:05:30.853Z,17.8
2023-05-22T04:11:23.607Z,17.8
2023-05-22T04:17:14.760Z,17.8
2023-05-22T04:23:06.228Z,17.8
2023-05-22T04:28:57.902Z,17.8
2023-05-22T04:34:34.372Z,17.8
2023-05-22T04:40:10.102Z,17.8
2023-05-22T04:46:03.960Z,17.8
2023-05-22T04:51:55.682Z,17.8
2023-05-22T04:57:59.273Z,17.8
2023-05-22T05:03:53.095Z,17.8
2023-05-22T05:09:45.638Z,17.8
2023-05-22T05:15:36.812Z,17.8
2023-05-22T05:21:32.667Z,17.8
2023-05-22T05:27:08.362Z,17.8
2023-05-22T05:32:59.375Z,17.8
2023-05-22T05:38:36.188Z,17.8
2023-05-22T05:44:27.310Z,17.8
2023-05-22T05:50:18.391Z,17.8
2023-05-22T05:56:10.375Z,17.8
2023-05-22T06:02:03.702Z,17.8
2023-05-22T06:07:56.301Z,17.8
2023-05-22T06:13:32.968Z,17.8
2023-05-22T06:19:25.852Z,17.8
2023-05-22T06:25:17.326Z,17.8
2023-05-22T06:31:29.054Z,17.8
2023-05-22T06:37:22.261Z,17.8
2023-05-22T06:43:13.334Z,17.8
2023-05-22T06:49:06.637Z,17.8
2023-05-22T06:54:58.107Z,17.8
2023-05-22T07:00:50.199Z,17.8
2023-05-22T07:06:43.461Z,17.8
2023-05-22T07:12:38.054Z,17.8
2023-05-22T07:18:32.428Z,17.8
2023-05-22T07:24:26.306Z,17.8
2023-05-22T07:30:18.010Z,17.8
2023-05-22T07:36:10.665Z,17.8
2023-05-22T07:42:05.167Z,17.8
2023-05-22T07:47:57.990Z,17.8
2023-05-22T07:53:49.848Z,17.8
2023-05-22T07:59:43.951Z,17.8
2023-05-22T08:05:22.538Z,17.8
2023-05-22T08:11:39.764Z,17.8
2023-05-22T08:17:40.686Z,17.8
2023-05-22T08:23:18.744Z,17.8
2023-05-22T08:29:10.961Z,17.8
2023-05-22T08:35:04.720Z,17.8
2023-05-22T08:40:59.026Z,17.8
2023-05-22T08:46:50.149Z,17.8
2023-05-22T08:52:43.342Z,17.8
2023-05-22T08:58:41.866Z,17.8
2023-05-22T09:04:36.087Z,17.8
2023-05-22T09:10:41.663Z,17.8
2023-05-22T09:16:34.830Z,17.8
2023-05-22T09:22:40.553Z,17.8
2023-05-22T09:28:34.034Z,17.8
2023-05-22T09:34:26.749Z,17.8
2023-05-22T09:40:19.502Z,17.8
2023-05-22T09:46:14.679Z,17.8
2023-05-22T09:52:07.610Z,17.8
2023-05-22T09:58:14.963Z,17.8
2023-05-22T10:04:10.990Z,17.8
2023-05-22T10:10:08.427Z,17.8
2023-05-22T10:16:01.078Z,17.8
2023-05-22T10:21:58.955Z,17.8
2023-05-22T10:27:36.833Z,17.8
2023-05-22T10:33:29.940Z,17.8
2023-05-22T10:39:34.447Z,17.8
2023-05-22T10:45:28.843Z,17.8
2023-05-22T10:51:07.699Z,17.8
2023-05-22T10:57:01.808Z,17.8
2023-05-22T11:02:58.662Z,17.9
2023-05-22T11:08:59.807Z,17.9
2023-05-22T11:14:56.691Z,17.9
2023-05-22T11:21:03.869Z,17.9
2023-05-22T11:26:56.717Z,17.9
2023-05-22T11:33:21.291Z,17.9
2023-05-22T11:38:58.280Z,17.9
2023-05-22T11:44:53.088Z,17.9
2023-05-22T11:50:59.155Z,17.9
2023-05-22T11:56:53.014Z,17.9
2023-05-22T12:02:49.338Z,17.9
2023-05-22T12:08:49.143Z,17.9
2023-05-22T12:14:44.897Z,17.9
2023-05-22T12:20:24.212Z,17.9
2023-05-22T12:26:19.602Z,18
2023-05-22T12:32:16.334Z,18.1
2023-05-22T12:37:55.524Z,18.1
2023-05-22T12:43:51.306Z,18.1
2023-05-22T12:49:31.179Z,18.1
2023-05-22T12:55:29.519Z,18.1
2023-05-22T13:01:25.258Z,18.1
2023-05-22T13:07:21.282Z,18.1
2023-05-22T13:13:02.684Z,18.1
2023-05-22T13:19:04.728Z,18.2
2023-05-22T13:25:06.674Z,18.2
2023-05-22T13:30:50.392Z,18.2
2023-05-22T13:36:49.357Z,18.3
2023-05-22T13:42:45.999Z,18.3
2023-05-22T13:48:41.652Z,18.3
2023-05-22T13:54:21.245Z,18.3
2023-05-22T14:00:16.471Z,18.3
2023-05-22T14:05:39.431Z,18.3
2023-05-22T14:11:17.241Z,18.3
2023-05-22T14:16:54.314Z,18.3
2023-05-22T14:22:34.349Z,18.4
2023-05-22T14:28:35.656Z,18.4
2023-05-22T14:34:28.499Z,18.4
2023-05-22T14:40:05.547Z,18.4
2023-05-22T14:45:27.076Z,18.4
2023-05-22T14:51:33.115Z,18.4
2023-05-22T14:57:25.589Z,18.4
2023-05-22T15:03:19.674Z,18.4
2023-05-22T15:09:22.288Z,18.4
2023-05-22T15:15:14.350Z,18.4
2023-05-22T15:21:08.272Z,18.5
2023-05-22T15:27:14.796Z,18.5
2023-05-22T15:33:07.916Z,18.5
2023-05-22T15:39:00.762Z,18.5
2023-05-22T15:45:05.357Z,18.5
2023-05-22T15:50:58.264Z,18.6
2023-05-22T15:56:53.172Z,18.6
2023-05-22T16:02:47.924Z,18.6
2023-05-22T16:08:25.390Z,18.6
2023-05-22T16:14:18.596Z,18.6
2023-05-22T16:20:18.095Z,18.6
2023-05-22T16:26:24.672Z,18.6
2023-05-22T16:32:18.047Z,18.6
2023-05-22T16:37:56.250Z,18.6
2023-05-22T16:43:49.996Z,18.6
2023-05-22T16:49:42.957Z,18.6
2023-05-22T16:55:35.559Z,18.6
2023-05-22T17:01:28.161Z,18.6
2023-05-22T17:07:22.557Z,18.6
2023-05-22T17:12:59.590Z,18.6
2023-05-22T17:18:54.205Z,18.6
2023-05-22T17:24:48.848Z,18.6
2023-05-22T17:30:21.664Z,18.6
2023-05-22T17:36:14.381Z,18.6
2023-05-22T17:42:22.616Z,18.6
2023-05-22T17:48:15.795Z,18.6
2023-05-22T17:54:08.625Z,18.6
2023-05-22T17:59:46.531Z,18.6
2023-05-22T18:05:09.428Z,18.6
2023-05-22T18:11:04.358Z,18.6
2023-05-22T18:17:13.162Z,18.6
2023-05-22T18:23:05.118Z,18.6
2023-05-22T18:28:26.802Z,18.6
2023-05-22T18:34:19.656Z,18.6
2023-05-22T18:40:12.635Z,18.6
2023-05-22T18:46:04.855Z,18.6
2023-05-22T18:51:58.243Z,18.6
2023-05-22T18:57:50.639Z,18.6
2023-05-22T19:03:44.117Z,18.6
2023-05-22T19:08:51.303Z,18.6
2023-05-22T19:14:16.330Z,18.6
2023-05-22T19:19:38.348Z,18.6
2023-05-22T19:24:44.656Z,18.6
2023-05-22T19:30:24.662Z,18.6
2023-05-22T19:36:02.578Z,18.5
2023-05-22T19:41:56.153Z,18.6
2023-05-22T19:47:33.391Z,18.5
2023-05-22T19:53:26.539Z,18.5
2023-05-22T19:59:19.144Z,18.5
2023-05-22T20:04:58.183Z,18.5
2023-05-22T20:10:19.092Z,18.5
2023-05-22T20:15:57.262Z,18.5
2023-05-22T20:21:50.162Z,18.5
2023-05-22T20:27:42.646Z,18.5
2023-05-22T20:33:35.975Z,18.5
2023-05-22T20:39:28.754Z,18.5
2023-05-22T20:45:21.162Z,18.4
2023-05-22T20:50:58.746Z,18.4
2023-05-22T20:56:50.692Z,18.4
2023-05-22T21:02:42.684Z,18.4
2023-05-22T21:08:36.061Z,18.4
2023-05-22T21:14:30.454Z,18.4
2023-05-22T21:20:23.038Z,18.4
2023-05-22T21:26:16.270Z,18.4
2023-05-22T21:32:09.802Z,18.4
2023-05-22T21:38:01.749Z,18.4
2023-05-22T21:43:52.110Z,18.4
2023-05-22T21:49:44.670Z,18.4
2023-05-22T21:55:37.684Z,18.4
2023-05-22T22:01:31.229Z,18.4
2023-05-22T22:07:24.537Z,18.4
2023-05-22T22:13:16.775Z,18.4
2023-05-22T22:19:09.935Z,18.4
2023-05-22T22:25:15.606Z,18.4
2023-05-22T22:31:07.260Z,18.3
2023-05-22T22:37:00.635Z,18.4
2023-05-22T22:42:40.145Z,18.3
2023-05-22T22:48:18.436Z,18.3
2023-05-22T22:54:11.826Z,18.3
2023-05-22T23:00:04.680Z,18.3
2023-05-22T23:05:57.990Z,18.3
2023-05-22T23:11:50.710Z,18.3
2023-05-22T23:17:43.528Z,18.3
2023-05-22T23:23:20.003Z,18.3
2023-05-22T23:28:45.165Z,18.3
2023-05-22T23:34:21.290Z,18.3
2023-05-22T23:39:57.224Z,18.3
2023-05-22T23:45:35.071Z,18.3
2023-05-22T23:51:26.525Z,18.3
2023-05-22T23:57:18.814Z,18.3
